Time;durP1;ratioP1;P1;durP2;ratioP2;P2;SDS_P1;SDS_P2;PMS_P1;PMS_P2;Temp;Humidity;BMP_temperature;BMP_pressure;BME280_temperature;BME280_humidity;BME280_pressure;Samples;Min_cycle;Max_cycle;Signal;HPM_P1;HPM_P2
2024/04/04 00:00:41;;;;;;;11.50;6.70;;;;;;;;;;5032778;28;20021;-59
2024/04/04 00:03:07;;;;;;;11.35;6.60;;;;;;;;;;5032550;28;20511;-56
2024/04/04 00:05:33;;;;;;;11.10;6.50;;;;;;;;;;5031251;28;20037;-53
2024/04/04 00:07:59;;;;;;;11.27;6.57;;;;;;;;;;5032177;28;20029;-51
2024/04/04 00:10:25;;;;;;;12.00;6.95;;;;;;;;;;5031014;28;20124;-53
2024/04/04 00:12:52;;;;;;;11.15;6.47;;;;;;;;;;5032099;28;20025;-56
2024/04/04 00:15:19;;;;;;;10.80;6.40;;;;;;;;;;5032273;28;20438;-55
2024/04/04 00:17:46;;;;;;;11.30;6.60;;;;;;;;;;5032079;28;20048;-56
2024/04/04 00:20:14;;;;;;;11.25;6.60;;;;;;;;;;5032043;28;20028;-57
2024/04/04 00:22:41;;;;;;;11.43;7.32;;;;;;;;;;5030639;28;20033;-56
2024/04/04 00:25:07;;;;;;;11.88;6.95;;;;;;;;;;5031669;28;20033;-54
2024/04/04 00:27:33;;;;;;;12.00;7.00;;;;;;;;;;5030744;28;20028;-52
2024/04/04 00:29:59;;;;;;;11.23;6.60;;;;;;;;;;5030497;28;20403;-56
2024/04/04 00:32:25;;;;;;;11.10;6.50;;;;;;;;;;5031632;28;20021;-51
2024/04/04 00:34:51;;;;;;;11.55;6.72;;;;;;;;;;5030584;28;20037;-53
2024/04/04 00:37:17;;;;;;;11.63;6.80;;;;;;;;;;5032146;28;20025;-58
2024/04/04 00:39:43;;;;;;;11.10;6.50;;;;;;;;;;5031431;28;20333;-55
2024/04/04 00:42:09;;;;;;;11.35;6.60;;;;;;;;;;5031328;28;20025;-55
2024/04/04 00:44:35;;;;;;;12.25;7.47;;;;;;;;;;5031272;28;20044;-56
2024/04/04 00:47:01;;;;;;;13.20;7.68;;;;;;;;;;5031443;28;20495;-55
2024/04/04 00:49:27;;;;;;;11.70;6.80;;;;;;;;;;5029998;28;20036;-55
2024/04/04 00:51:53;;;;;;;11.60;6.70;;;;;;;;;;5031292;28;20102;-55
2024/04/04 00:54:19;;;;;;;11.73;6.82;;;;;;;;;;5031377;28;20025;-55
2024/04/04 00:56:46;;;;;;;12.40;7.20;;;;;;;;;;5030361;28;20381;-55
2024/04/04 00:59:13;;;;;;;11.82;6.90;;;;;;;;;;5031337;28;20024;-54
2024/04/04 01:01:42;;;;;;;11.60;6.80;;;;;;;;;;5030977;28;20079;-53
2024/04/04 01:04:08;;;;;;;11.70;6.80;;;;;;;;;;5030935;28;20021;-57
2024/04/04 01:06:35;;;;;;;11.90;7.00;;;;;;;;;;5029856;28;20025;-58
2024/04/04 01:09:01;;;;;;;12.00;6.90;;;;;;;;;;5030110;28;20028;-56
2024/04/04 01:11:27;;;;;;;11.60;6.70;;;;;;;;;;5029481;28;20071;-55
2024/04/04 01:13:53;;;;;;;12.02;7.00;;;;;;;;;;5030834;28;20021;-55
2024/04/04 01:16:19;;;;;;;12.00;7.00;;;;;;;;;;5030824;28;20064;-56
2024/04/04 01:18:48;;;;;;;12.50;7.35;;;;;;;;;;5029455;28;20061;-54
2024/04/04 01:21:14;;;;;;;11.55;6.78;;;;;;;;;;5030824;28;20407;-57
2024/04/04 01:23:43;;;;;;;11.70;6.80;;;;;;;;;;5030718;28;20026;-55
2024/04/04 01:26:11;;;;;;;11.50;6.70;;;;;;;;;;5029858;28;20037;-55
2024/04/04 01:28:37;;;;;;;11.20;6.53;;;;;;;;;;5030537;28;20041;-52
2024/04/04 01:31:03;;;;;;;11.00;6.50;;;;;;;;;;5030998;28;20029;-53
2024/04/04 01:33:30;;;;;;;10.98;6.43;;;;;;;;;;5029472;28;20037;-55
2024/04/04 01:35:56;;;;;;;12.27;7.13;;;;;;;;;;5031681;28;20032;-51
2024/04/04 01:38:22;;;;;;;11.63;6.80;;;;;;;;;;5029556;28;20032;-54
2024/04/04 01:40:48;;;;;;;11.48;6.70;;;;;;;;;;5030414;28;20030;-57
2024/04/04 01:43:14;;;;;;;14.07;7.88;;;;;;;;;;5030290;28;20490;-55
2024/04/04 01:45:40;;;;;;;11.23;6.55;;;;;;;;;;5030365;28;20022;-55
2024/04/04 01:48:06;;;;;;;15.68;6.95;;;;;;;;;;5030378;28;20101;-55
2024/04/04 01:50:32;;;;;;;10.60;6.20;;;;;;;;;;5028995;28;20588;-56
2024/04/04 01:52:58;;;;;;;10.52;6.20;;;;;;;;;;5030082;28;20061;-52
2024/04/04 01:55:29;;;;;;;10.23;6.00;;;;;;;;;;5030226;28;20661;-54
2024/04/04 01:57:55;;;;;;;10.50;6.13;;;;;;;;;;5028910;28;20103;-53
2024/04/04 02:00:21;;;;;;;10.30;6.38;;;;;;;;;;5029851;28;20167;-50
2024/04/04 02:02:47;;;;;;;10.05;5.90;;;;;;;;;;5028677;28;20689;-53
2024/04/04 02:05:13;;;;;;;10.05;5.90;;;;;;;;;;5030020;28;20021;-52
2024/04/04 02:07:39;;;;;;;10.40;6.10;;;;;;;;;;5030049;28;20028;-55
2024/04/04 02:10:05;;;;;;;9.55;5.65;;;;;;;;;;5029399;28;20025;-51
2024/04/04 02:12:32;;;;;;;9.77;5.75;;;;;;;;;;5028674;28;20025;-55
2024/04/04 02:14:58;;;;;;;10.15;5.97;;;;;;;;;;5029897;28;20048;-55
2024/04/04 02:17:24;;;;;;;10.52;6.20;;;;;;;;;;5030100;28;20479;-56
2024/04/04 02:19:50;;;;;;;10.85;6.40;;;;;;;;;;5030490;28;20036;-54
2024/04/04 02:22:16;;;;;;;11.60;7.13;;;;;;;;;;5036583;28;20025;-53
2024/04/04 02:24:42;;;;;;;10.48;6.13;;;;;;;;;;5036446;28;20476;-57
2024/04/04 02:27:08;;;;;;;10.52;6.18;;;;;;;;;;5036704;28;20026;-55
2024/04/04 02:29:35;;;;;;;10.40;6.10;;;;;;;;;;5036798;28;20037;-56
2024/04/04 02:32:01;;;;;;;10.77;6.30;;;;;;;;;;5036459;28;20022;-54
2024/04/04 02:34:27;;;;;;;10.10;5.93;;;;;;;;;;5036248;28;20026;-57
2024/04/04 02:36:53;;;;;;;10.60;6.20;;;;;;;;;;5034680;28;20023;-58
2024/04/04 02:39:19;;;;;;;11.07;6.50;;;;;;;;;;5036242;28;20083;-55
2024/04/04 02:41:45;;;;;;;11.73;7.10;;;;;;;;;;5036411;28;20038;-54
2024/04/04 02:44:11;;;;;;;10.98;6.45;;;;;;;;;;5036307;28;20037;-57
2024/04/04 02:46:37;;;;;;;11.35;6.60;;;;;;;;;;5035553;28;20333;-55
2024/04/04 02:49:03;;;;;;;11.23;6.57;;;;;;;;;;5036516;28;20108;-58
2024/04/04 02:51:32;;;;;;;11.40;6.60;;;;;;;;;;5035187;28;20037;-55
2024/04/04 02:53:58;;;;;;;11.10;6.50;;;;;;;;;;5036478;28;20057;-54
2024/04/04 02:56:24;;;;;;;15.90;6.90;;;;;;;;;;5036395;28;20029;-56
2024/04/04 02:58:50;;;;;;;10.95;6.40;;;;;;;;;;5035063;28;20036;-54
2024/04/04 03:01:17;;;;;;;11.25;6.60;;;;;;;;;;5035061;28;20029;-52
2024/04/04 03:03:46;;;;;;;10.60;6.18;;;;;;;;;;5036213;28;20037;-54
2024/04/04 03:06:12;;;;;;;10.10;5.97;;;;;;;;;;5036372;28;20148;-56
2024/04/04 03:08:38;;;;;;;9.80;5.80;;;;;;;;;;5037121;28;20125;-59
2024/04/04 03:11:04;;;;;;;9.93;5.90;;;;;;;;;;5037191;28;20029;-57
2024/04/04 03:13:31;;;;;;;10.27;6.05;;;;;;;;;;5035897;28;20195;-57
2024/04/04 03:15:58;;;;;;;9.70;5.70;;;;;;;;;;5038917;28;20064;-58
2024/04/04 03:18:24;;;;;;;9.52;5.70;;;;;;;;;;5036548;28;20029;-55
2024/04/04 03:20:50;;;;;;;9.70;5.70;;;;;;;;;;5035901;28;20026;-53
2024/04/04 03:23:16;;;;;;;9.85;5.75;;;;;;;;;;5035918;28;20108;-55
2024/04/04 03:25:42;;;;;;;9.45;5.60;;;;;;;;;;5036240;28;20475;-54
2024/04/04 03:28:08;;;;;;;9.77;5.70;;;;;;;;;;5036517;28;20026;-53
2024/04/04 03:30:34;;;;;;;9.55;5.68;;;;;;;;;;5036064;28;20187;-56
2024/04/04 03:33:00;;;;;;;9.40;5.53;;;;;;;;;;5032401;28;20113;-55
2024/04/04 03:35:26;;;;;;;9.27;5.43;;;;;;;;;;5031566;28;20606;-53
2024/04/04 03:37:52;;;;;;;10.02;5.90;;;;;;;;;;5032741;28;20121;-53
2024/04/04 03:40:19;;;;;;;9.95;5.88;;;;;;;;;;5032482;28;20106;-56
2024/04/04 03:42:45;;;;;;;10.20;6.00;;;;;;;;;;5031325;28;20468;-58
2024/04/04 03:45:11;;;;;;;10.55;6.20;;;;;;;;;;5031368;28;20032;-54
2024/04/04 03:47:37;;;;;;;11.15;6.55;;;;;;;;;;5032736;28;20083;-52
2024/04/04 03:50:03;;;;;;;11.60;6.80;;;;;;;;;;5031224;28;20109;-53
2024/04/04 03:52:29;;;;;;;11.65;6.82;;;;;;;;;;5032378;28;20416;-52
2024/04/04 03:54:55;;;;;;;11.02;6.40;;;;;;;;;;5030573;28;20037;-54
2024/04/04 03:57:21;;;;;;;11.73;6.80;;;;;;;;;;5032320;28;20619;-52
2024/04/04 03:59:47;;;;;;;12.27;7.13;;;;;;;;;;5030843;28;20036;-55
2024/04/04 04:02:13;;;;;;;12.98;7.60;;;;;;;;;;5032420;28;20035;-51
2024/04/04 04:04:40;;;;;;;13.40;8.02;;;;;;;;;;5031005;28;20037;-55
2024/04/04 04:07:06;;;;;;;13.38;8.35;;;;;;;;;;5032352;28;20026;-53
2024/04/04 04:09:32;;;;;;;13.60;8.70;;;;;;;;;;5030762;28;20078;-56
2024/04/04 04:11:58;;;;;;;13.63;8.85;;;;;;;;;;5030864;28;20033;-58
2024/04/04 04:14:24;;;;;;;13.70;9.10;;;;;;;;;;5031649;28;20022;-54
2024/04/04 04:16:50;;;;;;;13.70;9.02;;;;;;;;;;5030697;28;20026;-56
2024/04/04 04:19:16;;;;;;;13.65;8.90;;;;;;;;;;5030575;28;20026;-55
2024/04/04 04:21:42;;;;;;;13.65;9.02;;;;;;;;;;5030349;28;20495;-53
2024/04/04 04:24:08;;;;;;;13.90;9.65;;;;;;;;;;5031663;28;20064;-52
2024/04/04 04:26:34;;;;;;;13.82;9.57;;;;;;;;;;5031729;28;20476;-55
2024/04/04 04:29:00;;;;;;;14.25;10.57;;;;;;;;;;5031585;28;20034;-50
2024/04/04 04:31:26;;;;;;;14.27;10.60;;;;;;;;;;5030041;28;20532;-54
2024/04/04 04:33:56;;;;;;;14.40;11.15;;;;;;;;;;5031178;28;20480;-53
2024/04/04 04:36:23;;;;;;;14.45;11.25;;;;;;;;;;5031822;28;20029;-58
2024/04/04 04:38:49;;;;;;;14.48;11.27;;;;;;;;;;5031677;28;20041;-55
2024/04/04 04:41:15;;;;;;;14.48;11.30;;;;;;;;;;5031011;28;20484;-54
2024/04/04 04:43:43;;;;;;;14.48;11.35;;;;;;;;;;5028757;28;20037;-54
2024/04/04 04:46:10;;;;;;;15.07;13.07;;;;;;;;;;5031608;28;20036;-55
2024/04/04 04:48:36;;;;;;;15.02;13.13;;;;;;;;;;5031224;28;20399;-55
2024/04/04 04:51:02;;;;;;;15.20;13.23;;;;;;;;;;5031002;28;20028;-52
2024/04/04 04:53:28;;;;;;;15.10;13.02;;;;;;;;;;5029867;28;20095;-55
2024/04/04 04:55:54;;;;;;;15.00;13.00;;;;;;;;;;5031086;28;20118;-57
2024/04/04 04:58:20;;;;;;;15.10;13.10;;;;;;;;;;5030982;28;20025;-56
2024/04/04 05:00:49;;;;;;;15.23;13.60;;;;;;;;;;5030672;28;20030;-54
2024/04/04 05:03:16;;;;;;;;;;;;;;;;;;5031257;28;20020;-57
2024/04/04 05:05:42;;;;;;;16.10;14.40;;;;;;;;;;5030934;28;19905;-53
2024/04/04 05:08:08;;;;;;;16.23;14.52;;;;;;;;;;5030812;28;20036;-50
2024/04/04 05:10:34;;;;;;;16.45;14.75;;;;;;;;;;5030257;28;20488;-52
2024/04/04 05:13:00;;;;;;;16.38;14.68;;;;;;;;;;5030398;28;20032;-56
2024/04/04 05:15:26;;;;;;;16.45;14.75;;;;;;;;;;5029506;28;20116;-56
2024/04/04 05:17:52;;;;;;;16.58;14.88;;;;;;;;;;5030517;28;20029;-54
2024/04/04 05:20:18;;;;;;;17.02;15.32;;;;;;;;;;5030449;28;20124;-57
2024/04/04 05:22:44;;;;;;;21.83;19.92;;;;;;;;;;5030288;28;20036;-55
2024/04/04 05:25:16;;;;;;;20.88;19.08;;;;;;;;;;5030516;28;20029;-56
2024/04/04 05:27:42;;;;;;;20.55;18.75;;;;;;;;;;5030548;28;20101;-57
2024/04/04 05:30:13;;;;;;;20.92;19.13;;;;;;;;;;5030459;28;20056;-53
2024/04/04 05:32:39;;;;;;;20.65;18.85;;;;;;;;;;5029363;28;20037;-55
2024/04/04 05:35:06;;;;;;;21.40;19.50;;;;;;;;;;5030205;28;20109;-55
2024/04/04 05:37:32;;;;;;;21.25;19.45;;;;;;;;;;5030330;28;20014;-54
2024/04/04 05:39:58;;;;;;;20.70;18.90;;;;;;;;;;5042628;22;20021;-53
2024/04/04 05:42:24;;;;;;;20.75;18.95;;;;;;;;;;5009385;28;20511;-52
2024/04/04 05:44:50;;;;;;;21.90;20.00;;;;;;;;;;5025166;28;20026;-56
2024/04/04 05:47:16;;;;;;;22.48;20.58;;;;;;;;;;5010503;28;20157;-54
2024/04/04 05:49:42;;;;;;;21.80;19.90;;;;;;;;;;5025447;28;20080;-58
2024/04/04 05:52:08;;;;;;;21.65;19.75;;;;;;;;;;5009646;28;20498;-55
2024/04/04 05:54:37;;;;;;;21.95;20.05;;;;;;;;;;5009750;28;20029;-58
2024/04/04 05:57:03;;;;;;;;;;;;;;;;;;5010551;28;20030;-58
2024/04/04 05:59:29;;;;;;;21.88;19.98;;;;;;;;;;5008496;28;20339;-56
2024/04/04 06:01:55;;;;;;;21.90;20.00;;;;;;;;;;5009777;28;20030;-59
2024/04/04 06:04:21;;;;;;;22.10;20.20;;;;;;;;;;5009380;28;20026;-57
2024/04/04 06:06:47;;;;;;;21.90;20.00;;;;;;;;;;5009618;28;20578;-57
2024/04/04 06:09:14;;;;;;;22.70;20.80;;;;;;;;;;5009670;28;20037;-58
2024/04/04 06:11:41;;;;;;;22.40;20.50;;;;;;;;;;5006594;28;20392;-53
2024/04/04 06:14:07;;;;;;;22.65;20.75;;;;;;;;;;5008084;28;20092;-49
2024/04/04 06:16:33;;;;;;;22.80;20.90;;;;;;;;;;4989941;28;20026;-58
2024/04/04 06:18:59;;;;;;;22.42;20.52;;;;;;;;;;4994952;28;20619;-55
2024/04/04 06:21:25;;;;;;;22.52;20.63;;;;;;;;;;5009165;28;20029;-58
2024/04/04 06:23:51;;;;;;;22.73;20.83;;;;;;;;;;5009333;28;20119;-58
2024/04/04 06:26:17;;;;;;;22.88;20.98;;;;;;;;;;5009595;28;20105;-52
2024/04/04 06:28:45;;;;;;;23.23;21.33;;;;;;;;;;4994648;28;20026;-57
2024/04/04 06:31:11;;;;;;;23.65;21.75;;;;;;;;;;4989940;28;20046;-54
2024/04/04 06:33:37;;;;;;;23.58;21.67;;;;;;;;;;4988359;28;20034;-59
2024/04/04 06:36:03;;;;;;;27.95;25.83;;;;;;;;;;4988469;28;20108;-55
2024/04/04 06:38:29;;;;;;;29.20;27.00;;;;;;;;;;4988467;28;20113;-56
2024/04/04 06:40:55;;;;;;;30.63;28.33;;;;;;;;;;4989496;28;20181;-55
2024/04/04 06:43:21;;;;;;;32.97;30.58;;;;;;;;;;4988335;28;20033;-58
2024/04/04 06:45:47;;;;;;;31.40;29.10;;;;;;;;;;5004560;28;20026;-56
2024/04/04 06:48:13;;;;;;;34.92;32.42;;;;;;;;;;5008259;28;20026;-50
2024/04/04 06:50:39;;;;;;;33.05;30.65;;;;;;;;;;5015079;28;20093;-54
2024/04/04 06:53:05;;;;;;;34.20;31.73;;;;;;;;;;5016124;28;20116;-56
2024/04/04 06:55:32;;;;;;;34.15;31.75;;;;;;;;;;5012439;28;20026;-56
2024/04/04 06:57:57;;;;;;;33.03;30.63;;;;;;;;;;5009425;28;20473;-56
2024/04/04 07:00:23;;;;;;;32.47;30.08;;;;;;;;;;5008473;28;20113;-57
2024/04/04 07:02:49;;;;;;;30.00;27.73;;;;;;;;;;5008929;28;20110;-54
2024/04/04 07:05:15;;;;;;;29.77;27.58;;;;;;;;;;5008958;28;20097;-59
2024/04/04 07:07:41;;;;;;;32.53;30.13;;;;;;;;;;5010354;28;20038;-57
2024/04/04 07:10:08;;;;;;;29.30;27.10;;;;;;;;;;5012794;28;20022;-55
2024/04/04 07:12:34;;;;;;;28.35;26.15;;;;;;;;;;5012882;28;20550;-57
2024/04/04 07:15:00;;;;;;;28.60;26.40;;;;;;;;;;5012701;28;20041;-55
2024/04/04 07:17:30;;;;;;;27.60;25.48;;;;;;;;;;5012509;28;20075;-57
2024/04/04 07:19:56;;;;;;;29.60;27.40;;;;;;;;;;5012795;28;20022;-56
2024/04/04 07:22:22;;;;;;;28.70;26.50;;;;;;;;;;5012671;28;20435;-57
2024/04/04 07:24:48;;;;;;;28.08;25.88;;;;;;;;;;5012361;28;20476;-54
2024/04/04 07:27:15;;;;;;;27.73;25.52;;;;;;;;;;5012313;28;20030;-57
2024/04/04 07:29:44;;;;;;;28.35;26.15;;;;;;;;;;5012391;28;20026;-57
2024/04/04 07:32:11;;;;;;;27.13;25.02;;;;;;;;;;5012076;28;20028;-57
2024/04/04 07:34:37;;;;;;;27.17;25.08;;;;;;;;;;5011533;28;20053;-56
2024/04/04 07:37:03;;;;;;;28.25;26.05;;;;;;;;;;5012307;28;20026;-55
2024/04/04 07:39:30;;;;;;;26.65;24.55;;;;;;;;;;5012298;28;20046;-57
2024/04/04 07:41:57;;;;;;;27.80;25.60;;;;;;;;;;5011856;28;20484;-56
2024/04/04 07:44:23;;;;;;;28.27;26.08;;;;;;;;;;5012071;28;20033;-54
2024/04/04 07:46:52;;;;;;;28.15;25.95;;;;;;;;;;5011698;28;20057;-51
2024/04/04 07:49:18;;;;;;;27.95;25.75;;;;;;;;;;5011247;28;20025;-56
2024/04/04 07:51:45;;;;;;;27.60;25.42;;;;;;;;;;5012517;28;20030;-53
2024/04/04 07:54:11;;;;;;;27.55;25.35;;;;;;;;;;5011850;28;20156;-59
2024/04/04 07:56:37;;;;;;;27.05;24.95;;;;;;;;;;5010819;28;20030;-58
2024/04/04 07:59:03;;;;;;;28.67;26.48;;;;;;;;;;5011997;28;20037;-56
2024/04/04 08:01:29;;;;;;;27.90;25.70;;;;;;;;;;5011421;28;20480;-56
2024/04/04 08:03:56;;;;;;;27.50;25.40;;;;;;;;;;5011595;28;20026;-56
2024/04/04 08:06:22;;;;;;;26.83;24.73;;;;;;;;;;5011929;28;20021;-53
2024/04/04 08:08:48;;;;;;;26.50;24.40;;;;;;;;;;5011810;28;20030;-54
2024/04/04 08:11:15;;;;;;;25.80;23.70;;;;;;;;;;5011333;28;20025;-55
2024/04/04 08:13:42;;;;;;;25.92;23.83;;;;;;;;;;5010408;28;20017;-53
2024/04/04 08:16:08;;;;;;;26.45;24.35;;;;;;;;;;5011648;28;20074;-56
2024/04/04 08:18:34;;;;;;;25.95;23.85;;;;;;;;;;5009639;28;20475;-53
2024/04/04 08:21:00;;;;;;;25.73;23.63;;;;;;;;;;5011636;28;20033;-56
2024/04/04 08:23:26;;;;;;;25.35;23.35;;;;;;;;;;5011279;28;20108;-56
2024/04/04 08:25:53;;;;;;;28.20;26.00;;;;;;;;;;5011881;28;20099;-55
2024/04/04 08:28:19;;;;;;;28.42;26.23;;;;;;;;;;5011461;28;20030;-54
2024/04/04 08:30:46;;;;;;;28.15;25.95;;;;;;;;;;5011545;28;20631;-54
2024/04/04 08:33:12;;;;;;;29.02;26.83;;;;;;;;;;5011697;28;20026;-54
2024/04/04 08:35:38;;;;;;;31.02;28.73;;;;;;;;;;5011346;28;20100;-55
2024/04/04 08:38:04;;;;;;;28.27;26.08;;;;;;;;;;5010997;28;20177;-54
2024/04/04 08:40:31;;;;;;;29.60;27.40;;;;;;;;;;5011059;28;20030;-56
2024/04/04 08:42:57;;;;;;;33.40;31.00;;;;;;;;;;5010951;28;20056;-53
2024/04/04 08:45:23;;;;;;;32.35;29.95;;;;;;;;;;5011164;28;20053;-55
2024/04/04 08:47:49;;;;;;;30.08;27.85;;;;;;;;;;5011348;28;20544;-54
2024/04/04 08:50:15;;;;;;;31.35;29.05;;;;;;;;;;5011027;28;20400;-54
2024/04/04 08:52:41;;;;;;;31.58;29.27;;;;;;;;;;4999840;28;20032;-57
2024/04/04 08:55:08;;;;;;;28.52;26.42;;;;;;;;;;4991441;28;20030;-57
2024/04/04 08:57:34;;;;;;;29.58;27.38;;;;;;;;;;4990490;28;20034;-57
2024/04/04 09:00:02;;;;;;;29.90;27.70;;;;;;;;;;4991249;28;20095;-57
2024/04/04 09:02:28;;;;;;;26.15;24.15;;;;;;;;;;4990764;28;20022;-56
2024/04/04 09:05:07;;;;;;;25.80;23.80;;;;;;;;;;4991886;28;20393;-57
2024/04/04 09:07:36;;;;;;;26.05;24.05;;;;;;;;;;4991334;28;20473;-57
2024/04/04 09:10:06;;;;;;;25.00;23.00;;;;;;;;;;4991424;28;20034;-57
2024/04/04 09:12:32;;;;;;;27.50;25.40;;;;;;;;;;4995921;28;20461;-53
2024/04/04 09:14:58;;;;;;;25.83;23.83;;;;;;;;;;5010648;28;20030;-58
2024/04/04 09:17:26;;;;;;;24.40;22.40;;;;;;;;;;5009242;28;20025;-54
2024/04/04 09:19:55;;;;;;;23.90;22.00;;;;;;;;;;5010504;28;20510;-56
2024/04/04 09:22:25;;;;;;;22.75;20.85;;;;;;;;;;5009127;28;20265;-57
2024/04/04 09:24:56;;;;;;;21.40;19.60;;;;;;;;;;5010385;28;20033;-56
2024/04/04 09:27:22;;;;;;;20.23;18.42;;;;;;;;;;5010331;28;20033;-69
2024/04/04 09:29:49;;;;;;;17.20;15.50;;;;;;;;;;5009685;28;20022;-54
2024/04/04 09:32:17;;;;;;;16.40;14.70;;;;;;;;;;5009934;28;20072;-56
2024/04/04 09:34:43;;;;;;;16.00;14.30;;;;;;;;;;5011488;28;20508;-54
2024/04/04 09:37:10;;;;;;;16.10;14.40;;;;;;;;;;5016340;28;20040;-53
2024/04/04 09:39:36;;;;;;;15.80;14.10;;;;;;;;;;5016233;28;20033;-56
2024/04/04 09:42:03;;;;;;;15.13;13.52;;;;;;;;;;5011727;28;20403;-56
2024/04/04 09:44:30;;;;;;;14.85;12.95;;;;;;;;;;5010670;28;20084;-51
2024/04/04 09:46:58;;;;;;;15.10;13.43;;;;;;;;;;5010759;28;20038;-55
2024/04/04 09:49:24;;;;;;;14.90;12.80;;;;;;;;;;5010171;28;20041;-55
2024/04/04 09:51:52;;;;;;;14.80;12.38;;;;;;;;;;5009921;28;20030;-52
2024/04/04 09:54:18;;;;;;;14.70;12.18;;;;;;;;;;5008407;28;20076;-57
2024/04/04 09:56:45;;;;;;;14.70;12.00;;;;;;;;;;5009399;28;20030;-58
2024/04/04 09:59:11;;;;;;;14.70;12.23;;;;;;;;;;5009242;28;20108;-53
2024/04/04 10:01:38;;;;;;;14.60;11.90;;;;;;;;;;5005839;28;20096;-57
2024/04/04 10:04:05;;;;;;;14.80;12.70;;;;;;;;;;5008165;28;20103;-56
2024/04/04 10:06:41;;;;;;;14.80;12.40;;;;;;;;;;5009756;28;20030;-58
2024/04/04 10:09:14;;;;;;;14.90;12.55;;;;;;;;;;5010182;28;20026;-56
2024/04/04 10:11:40;;;;;;;15.00;12.80;;;;;;;;;;5009677;28;20026;-55
2024/04/04 10:14:12;;;;;;;14.35;11.10;;;;;;;;;;5009501;28;20026;-55
2024/04/04 10:16:38;;;;;;;14.20;10.65;;;;;;;;;;5009697;28;20100;-52
2024/04/04 10:19:20;;;;;;;14.20;10.70;;;;;;;;;;5009704;28;20026;-54
2024/04/04 10:21:47;;;;;;;13.95;10.00;;;;;;;;;;5009594;28;20021;-51
2024/04/04 10:24:23;;;;;;;14.10;10.23;;;;;;;;;;5009654;28;20036;-57
2024/04/04 10:26:52;;;;;;;13.80;9.38;;;;;;;;;;5009599;28;20112;-56
2024/04/04 10:29:18;;;;;;;13.57;8.70;;;;;;;;;;5009552;28;20396;-55
2024/04/04 10:31:44;;;;;;;13.45;8.35;;;;;;;;;;5007852;28;20519;-57
2024/04/04 10:34:12;;;;;;;13.00;7.60;;;;;;;;;;5009314;28;20022;-59
2024/04/04 10:36:42;;;;;;;13.00;7.57;;;;;;;;;;5008231;28;20084;-57
2024/04/04 10:39:16;;;;;;;12.63;7.40;;;;;;;;;;5009305;28;20974;-54
2024/04/04 10:41:43;;;;;;;12.32;7.22;;;;;;;;;;5009523;28;20034;-54
2024/04/04 10:44:18;;;;;;;13.20;7.75;;;;;;;;;;5011838;28;20033;-57
2024/04/04 10:46:44;;;;;;;12.18;7.10;;;;;;;;;;5012106;28;20105;-56
2024/04/04 10:49:11;;;;;;;12.10;7.10;;;;;;;;;;5013216;28;20136;-53
2024/04/04 10:51:38;;;;;;;12.15;7.13;;;;;;;;;;5011543;28;20040;-54
2024/04/04 10:54:04;;;;;;;12.43;7.25;;;;;;;;;;5012677;28;20060;-55
2024/04/04 10:56:31;;;;;;;12.90;7.60;;;;;;;;;;5013261;28;20403;-55
2024/04/04 10:59:00;;;;;;;12.32;7.20;;;;;;;;;;5013056;28;20036;-55
2024/04/04 11:01:27;;;;;;;12.15;7.10;;;;;;;;;;5012634;28;20026;-56
2024/04/04 11:03:56;;;;;;;12.18;7.07;;;;;;;;;;5012240;28;20493;-54
2024/04/04 11:06:27;;;;;;;12.68;7.40;;;;;;;;;;5012547;28;20614;-55
2024/04/04 11:08:54;;;;;;;12.10;7.10;;;;;;;;;;5013201;28;20018;-56
2024/04/04 11:11:21;;;;;;;11.95;7.00;;;;;;;;;;5012445;28;20575;-58
2024/04/04 11:13:48;;;;;;;12.20;7.10;;;;;;;;;;5012621;28;20022;-57
2024/04/04 11:16:14;;;;;;;12.07;7.03;;;;;;;;;;5011733;28;20029;-57
2024/04/04 11:18:41;;;;;;;11.68;6.90;;;;;;;;;;5012868;28;20054;-54
2024/04/04 11:21:09;;;;;;;12.27;7.13;;;;;;;;;;5012610;28;20113;-52
2024/04/04 11:23:35;;;;;;;12.73;7.43;;;;;;;;;;5012803;28;20112;-57
2024/04/04 11:26:01;;;;;;;12.38;7.18;;;;;;;;;;5012729;28;20511;-56
2024/04/04 11:28:27;;;;;;;13.00;7.70;;;;;;;;;;5012338;28;20087;-56
2024/04/04 11:30:54;;;;;;;12.35;7.20;;;;;;;;;;5010913;28;20148;-53
2024/04/04 11:33:20;;;;;;;12.85;7.50;;;;;;;;;;5012301;28;20021;-54
2024/04/04 11:35:46;;;;;;;13.10;7.68;;;;;;;;;;5006119;28;20100;-53
2024/04/04 11:38:12;;;;;;;13.35;8.05;;;;;;;;;;5002463;28;20032;-57
2024/04/04 11:40:39;;;;;;;13.38;8.20;;;;;;;;;;5016336;23;20355;-53
2024/04/04 11:43:05;;;;;;;13.20;7.70;;;;;;;;;;5009857;28;20274;-53
2024/04/04 11:45:31;;;;;;;13.25;7.80;;;;;;;;;;4992806;28;20019;-50
2024/04/04 11:47:57;;;;;;;13.23;7.80;;;;;;;;;;4993239;28;20027;-53
2024/04/04 11:50:23;;;;;;;13.27;7.80;;;;;;;;;;4991513;28;20027;-55
2024/04/04 11:52:49;;;;;;;13.45;8.23;;;;;;;;;;4991845;28;20434;-52
2024/04/04 11:55:15;;;;;;;13.13;7.90;;;;;;;;;;4992414;28;20062;-54
2024/04/04 11:57:41;;;;;;;13.52;8.43;;;;;;;;;;4992550;28;20050;-56
2024/04/04 12:00:11;;;;;;;13.15;7.78;;;;;;;;;;4991522;28;20488;-54
2024/04/04 12:02:37;;;;;;;13.40;8.00;;;;;;;;;;4992855;28;20031;-52
2024/04/04 12:05:05;;;;;;;13.23;7.82;;;;;;;;;;4992675;28;20461;-53
2024/04/04 12:07:31;;;;;;;13.32;7.90;;;;;;;;;;4992871;28;20026;-52
2024/04/04 12:09:57;;;;;;;13.43;8.20;;;;;;;;;;4992614;28;20396;-53
2024/04/04 12:12:23;;;;;;;13.32;7.97;;;;;;;;;;4996094;28;20018;-56
2024/04/04 12:14:49;;;;;;;13.38;8.10;;;;;;;;;;5012459;28;20044;-56
2024/04/04 12:17:19;;;;;;;13.48;8.40;;;;;;;;;;5012347;28;20022;-57
2024/04/04 12:19:45;;;;;;;13.57;8.60;;;;;;;;;;5012176;28;20483;-58
2024/04/04 12:22:13;;;;;;;13.40;8.20;;;;;;;;;;5010449;28;20121;-56
2024/04/04 12:24:39;;;;;;;13.50;8.32;;;;;;;;;;5010667;28;20397;-54
2024/04/04 12:27:05;;;;;;;13.50;8.50;;;;;;;;;;5011762;28;20257;-52
2024/04/04 12:29:31;;;;;;;13.60;8.68;;;;;;;;;;5012199;28;20330;-52
2024/04/04 12:31:57;;;;;;;13.48;8.45;;;;;;;;;;5012014;28;20049;-56
2024/04/04 12:34:23;;;;;;;13.63;8.70;;;;;;;;;;5011331;28;20493;-56
2024/04/04 12:36:49;;;;;;;13.52;8.50;;;;;;;;;;5011670;28;20034;-54
2024/04/04 12:39:15;;;;;;;13.50;8.45;;;;;;;;;;5011546;28;20030;-54
2024/04/04 12:41:42;;;;;;;13.52;8.40;;;;;;;;;;5011221;28;20057;-52
2024/04/04 12:44:08;;;;;;;13.40;8.30;;;;;;;;;;5009944;28;20036;-53
2024/04/04 12:46:35;;;;;;;13.55;8.52;;;;;;;;;;5011399;28;20381;-53
2024/04/04 12:49:01;;;;;;;13.50;8.40;;;;;;;;;;5011650;28;20045;-55
2024/04/04 12:51:27;;;;;;;13.43;8.18;;;;;;;;;;5008770;28;20408;-56
2024/04/04 12:53:53;;;;;;;13.40;8.20;;;;;;;;;;5011212;28;20049;-58
2024/04/04 12:56:22;;;;;;;13.43;8.13;;;;;;;;;;5011685;28;20038;-57
2024/04/04 12:58:48;;;;;;;13.55;8.50;;;;;;;;;;5011432;28;20029;-54
2024/04/04 13:01:14;;;;;;;13.40;8.20;;;;;;;;;;5009043;28;20034;-56
2024/04/04 13:03:41;;;;;;;13.43;8.20;;;;;;;;;;5010572;28;20175;-56
2024/04/04 13:06:09;;;;;;;13.55;8.50;;;;;;;;;;5009595;28;20048;-53
2024/04/04 13:08:35;;;;;;;13.52;8.40;;;;;;;;;;5010570;28;20037;-56
2024/04/04 13:11:01;;;;;;;13.65;8.85;;;;;;;;;;5010852;28;20101;-54
2024/04/04 13:13:27;;;;;;;13.57;8.65;;;;;;;;;;5009640;28;20053;-57
2024/04/04 13:15:53;;;;;;;18.20;8.35;;;;;;;;;;5010407;28;20112;-56
2024/04/04 13:18:20;;;;;;;13.35;8.07;;;;;;;;;;5011286;28;20032;-53
2024/04/04 13:20:46;;;;;;;13.35;7.95;;;;;;;;;;5011029;28;20021;-53
2024/04/04 13:23:12;;;;;;;13.43;8.10;;;;;;;;;;5009608;28;20361;-53
2024/04/04 13:25:38;;;;;;;13.48;8.40;;;;;;;;;;5010939;28;20018;-54
2024/04/04 13:28:05;;;;;;;13.60;8.60;;;;;;;;;;5010945;28;20052;-53
2024/04/04 13:30:31;;;;;;;14.00;8.48;;;;;;;;;;5009859;28;20026;-50
2024/04/04 13:32:57;;;;;;;13.50;8.30;;;;;;;;;;5003476;28;20052;-56
2024/04/04 13:35:26;;;;;;;13.63;8.88;;;;;;;;;;4990843;28;20026;-55
2024/04/04 13:37:52;;;;;;;13.85;9.45;;;;;;;;;;4999891;28;20014;-50
2024/04/04 13:40:20;;;;;;;13.60;8.70;;;;;;;;;;5009142;28;20021;-55
2024/04/04 13:42:46;;;;;;;13.57;8.80;;;;;;;;;;5010695;28;20128;-55
2024/04/04 13:45:12;;;;;;;13.75;9.20;;;;;;;;;;5019263;28;20030;-55
2024/04/04 13:47:39;;;;;;;13.68;8.88;;;;;;;;;;5022478;28;20097;-57
2024/04/04 13:50:05;;;;;;;14.27;9.52;;;;;;;;;;5010607;28;20403;-56
2024/04/04 13:52:31;;;;;;;14.10;9.30;;;;;;;;;;5010193;28;20100;-56
2024/04/04 13:54:59;;;;;;;13.63;8.60;;;;;;;;;;5008805;28;20056;-54
2024/04/04 13:57:25;;;;;;;13.70;8.98;;;;;;;;;;5010220;28;20033;-54
2024/04/04 13:59:51;;;;;;;13.65;8.80;;;;;;;;;;5009900;28;20108;-58
2024/04/04 14:02:17;;;;;;;13.80;8.90;;;;;;;;;;5008942;28;20037;-56
2024/04/04 14:04:43;;;;;;;13.73;9.00;;;;;;;;;;5007650;28;20045;-55
2024/04/04 14:07:09;;;;;;;17.20;9.93;;;;;;;;;;5007655;28;20101;-51
2024/04/04 14:09:35;;;;;;;13.68;8.90;;;;;;;;;;5007916;28;20123;-54
2024/04/04 14:12:02;;;;;;;13.60;8.60;;;;;;;;;;5008816;28;20595;-56
2024/04/04 14:14:29;;;;;;;13.55;8.50;;;;;;;;;;5008406;28;20025;-56
2024/04/04 14:16:55;;;;;;;15.10;12.70;;;;;;;;;;5007921;28;20033;-57
2024/04/04 14:19:22;;;;;;;33.25;30.05;;;;;;;;;;5008645;28;20068;-53
2024/04/04 14:21:48;;;;;;;39.33;36.53;;;;;;;;;;5008686;28;20484;-52